< Typhoon 198419 1984 Season Typhoon 198421 >
Typhoon 198420 (SUSAN)
General InformationTrack Information on Google MapsDetailed Wind InformationList of All Images || NewsDisaster Info.ResourceGoogle EarthGE AnimationAtom FeedGeoJSON
Detalied Best Track (Time Zone = UTC)
Year Month Day Hour Lat. Long. Pressure (hPa) Wind (kt) Class Image Chart
1984 10 10 06 11.0 117.5 1004 0 2 Image Chart
1984 10 10 12 11.0 117.2 1004 0 2 Image Chart
1984 10 10 18 11.0 116.7 1004 0 2 Image Chart
1984 10 11 00 11.0 116.2 1004 0 2 Image Chart
1984 10 11 06 11.5 115.0 1004 0 2 Image Chart
1984 10 11 12 11.8 113.8 1004 0 2 Image Chart
1984 10 11 18 12.0 112.6 1000 0 2 Image Chart
1984 10 12 00 12.3 111.3 996 0 2 Image Chart
1984 10 12 06 12.5 109.9 996 40 3 Image Chart
1984 10 12 12 12.5 108.5 998 35 3 Image Chart
1984 10 12 18 12.5 107.5 1000 0 2 Image Chart
1984 10 13 00 13.0 107.0 1002 0 2 Image Chart
1984 10 13 06 13.2 106.7 1004 0 2 Image Chart
1984 10 13 12 13.4 106.3 1004 0 2 Image Chart
1984 10 13 18 13.6 106.0 1004 0 2 Image Chart
1984 10 14 00 14.0 106.0 1004 0 2 Image Chart
1984 10 14 06 14.5 105.5 1006 0 2 Image Chart
1984 10 14 12 15.0 105.0 1007 0 2 Image Chart
1984 10 14 18 15.5 104.5 1008 0 2 Image Chart
1984 10 15 00 16.0 104.0 1008 0 2 Image Chart
1984 10 15 06 16.5 103.5 1009 0 6 Image Chart
Japan Meteorological Agency Best Track Data | Correction Date : 1992-10-21
< Typhoon 198419 1984 Season Typhoon 198421 >

Help